Time;durP1;ratioP1;P1;durP2;ratioP2;P2;SDS_P1;SDS_P2;PMS_P1;PMS_P2;Temp;Humidity;BMP_temperature;BMP_pressure;BME280_temperature;BME280_humidity;BME280_pressure;Samples;Min_cycle;Max_cycle;Signal;HPM_P1;HPM_P2
2023/05/06 03:02:08;;;;;;;1.40;1.30;;;22.40;46.50;;;;;;5120318;23;45833;-62
2023/05/06 03:04:34;;;;;;;1.17;1.07;;;22.40;46.50;;;;;;4966021;28;45513;-61
2023/05/06 03:06:59;;;;;;;1.10;1.00;;;22.40;46.50;;;;;;4962044;28;45474;-65
2023/05/06 03:09:25;;;;;;;1.40;1.30;;;22.40;46.60;;;;;;4959664;28;46345;-63
2023/05/06 03:11:51;;;;;;;1.20;1.10;;;22.40;46.50;;;;;;4947053;28;45869;-62
2023/05/06 03:14:16;;;;;;;1.30;1.20;;;22.40;46.50;;;;;;4948607;28;45166;-62
2023/05/06 03:16:42;;;;;;;1.20;1.10;;;22.40;46.50;;;;;;4936561;28;45208;-62
2023/05/06 03:19:08;;;;;;;1.00;1.00;;;22.40;46.50;;;;;;4947669;28;45056;-62
2023/05/06 03:21:33;;;;;;;1.20;1.10;;;22.40;46.50;;;;;;4941796;28;46667;-60
2023/05/06 03:23:59;;;;;;;1.35;1.20;;;22.40;46.50;;;;;;4945836;28;45347;-61
2023/05/06 03:26:25;;;;;;;1.60;1.30;;;22.40;46.50;;;;;;4941893;28;45343;-62
2023/05/06 03:28:51;;;;;;;1.27;1.17;;;22.30;46.50;;;;;;4941946;28;45379;-61
2023/05/06 03:31:16;;;;;;;1.23;1.13;;;22.40;46.60;;;;;;4940587;28;45254;-62
2023/05/06 03:33:43;;;;;;;1.20;1.10;;;22.30;46.50;;;;;;4942440;28;45540;-62
2023/05/06 03:36:08;;;;;;;1.47;1.30;;;22.40;46.50;;;;;;4920841;28;45497;-62
2023/05/06 03:38:34;;;;;;;1.03;1.03;;;22.30;46.50;;;;;;4946755;28;44837;-62
2023/05/06 03:40:59;;;;;;;1.20;1.10;;;22.40;46.60;;;;;;4939004;28;45546;-62
2023/05/06 03:43:25;;;;;;;1.00;1.00;;;22.40;46.60;;;;;;4946614;28;45074;-61
2023/05/06 03:45:50;;;;;;;1.20;1.10;;;22.40;46.60;;;;;;4934145;28;45172;-64
2023/05/06 03:48:16;;;;;;;1.20;1.10;;;22.40;46.60;;;;;;4944160;28;45274;-62
2023/05/06 03:50:42;;;;;;;1.20;1.10;;;22.40;46.60;;;;;;4939832;28;46682;-63
2023/05/06 03:53:07;;;;;;;1.17;1.00;;;22.40;46.60;;;;;;4943039;28;45581;-62
2023/05/06 03:55:33;;;;;;;1.00;1.00;;;22.40;46.60;;;;;;4927892;28;45152;-63
2023/05/06 03:58:00;;;;;;;1.30;1.20;;;22.30;46.50;;;;;;4938862;28;45327;-62
2023/05/06 04:00:25;;;;;;;1.20;1.10;;;22.40;46.60;;;;;;4929179;28;45969;-63
2023/05/06 04:02:51;;;;;;;1.25;1.00;;;22.40;46.70;;;;;;4925272;28;45844;-62
2023/05/06 04:05:17;;;;;;;1.88;1.17;;;22.40;46.60;;;;;;4907767;28;46173;-62
2023/05/06 04:07:42;;;;;;;1.00;1.00;;;22.40;46.60;;;;;;4907896;28;45177;-63
2023/05/06 04:10:08;;;;;;;1.13;1.10;;;22.30;46.60;;;;;;4920423;28;47204;-62
2023/05/06 04:12:34;;;;;;;1.20;1.00;;;22.40;46.70;;;;;;4892256;28;45138;-62
2023/05/06 04:15:00;;;;;;;1.17;1.08;;;22.30;46.60;;;;;;4912085;28;45545;-62
2023/05/06 04:17:25;;;;;;;1.40;1.20;;;22.30;46.60;;;;;;4920102;28;45418;-62
2023/05/06 04:19:52;;;;;;;1.08;1.00;;;22.30;46.60;;;;;;4911357;28;46580;-62
2023/05/06 04:22:18;;;;;;;1.05;1.00;;;22.30;46.60;;;;;;4924980;28;45540;-62
2023/05/06 04:24:44;;;;;;;1.02;1.00;;;22.30;46.60;;;;;;4925646;28;45725;-63
2023/05/06 04:27:10;;;;;;;0.95;0.95;;;22.30;46.60;;;;;;4924880;28;44841;-62
2023/05/06 04:29:36;;;;;;;1.17;1.00;;;22.30;46.60;;;;;;4926387;28;46143;-65
2023/05/06 04:32:03;;;;;;;1.13;1.00;;;22.30;46.60;;;;;;4901799;28;45389;-62
2023/05/06 04:34:29;;;;;;;1.10;1.00;;;22.30;46.60;;;;;;4893620;28;44920;-63
2023/05/06 04:36:55;;;;;;;1.20;1.10;;;22.40;46.70;;;;;;4922148;28;45714;-62
2023/05/06 04:39:21;;;;;;;1.10;1.00;;;22.30;46.60;;;;;;4925909;28;46220;-60
2023/05/06 04:41:48;;;;;;;1.23;1.13;;;22.30;46.70;;;;;;4919626;28;45103;-62
2023/05/06 04:44:13;;;;;;;1.20;1.10;;;22.30;46.70;;;;;;4908394;28;44707;-62
2023/05/06 04:46:39;;;;;;;1.02;1.00;;;22.30;46.70;;;;;;4920520;28;45065;-64
2023/05/06 04:49:05;;;;;;;1.00;0.90;;;22.30;46.70;;;;;;4930285;28;46971;-65
2023/05/06 04:51:30;;;;;;;1.20;1.10;;;22.30;46.70;;;;;;4925468;28;45178;-62
2023/05/06 04:53:56;;;;;;;1.52;1.20;;;22.30;46.70;;;;;;4927096;28;45153;-63
2023/05/06 04:56:22;;;;;;;1.27;1.17;;;22.40;46.70;;;;;;4925090;28;45304;-62
2023/05/06 04:58:47;;;;;;;1.20;1.10;;;22.30;46.60;;;;;;4926563;28;46728;-63
2023/05/06 05:01:13;;;;;;;0.98;0.95;;;22.30;46.60;;;;;;4926113;28;45213;-62
2023/05/06 05:03:38;;;;;;;1.20;1.10;;;22.30;46.60;;;;;;4944953;28;44971;-62
2023/05/06 05:06:04;;;;;;;1.17;1.07;;;22.30;46.60;;;;;;4940240;28;45402;-62
2023/05/06 05:08:49;;;;;;;2.22;1.10;;;22.30;46.60;;;;;;4930359;28;45698;-62
2023/05/06 05:11:37;;;;;;;1.25;0.90;;;22.30;46.60;;;;;;4937634;28;45125;-64
2023/05/06 05:14:22;;;;;;;1.17;1.10;;;22.30;46.60;;;;;;4925943;28;45628;-61
2023/05/06 05:16:48;;;;;;;1.10;1.00;;;22.30;46.60;;;;;;4938675;28;45552;-61
2023/05/06 05:19:13;;;;;;;0.90;0.90;;;22.30;46.60;;;;;;4945825;28;45283;-62
2023/05/06 05:21:39;;;;;;;1.27;1.17;;;22.30;46.60;;;;;;4941724;28;45387;-63
2023/05/06 05:24:05;;;;;;;1.37;1.10;;;22.30;46.70;;;;;;4945289;28;44992;-61
2023/05/06 05:26:30;;;;;;;1.03;0.97;;;22.30;46.60;;;;;;4945837;28;44883;-61
2023/05/06 05:28:56;;;;;;;1.20;1.10;;;22.40;46.70;;;;;;4948190;28;45946;-62
2023/05/06 05:31:21;;;;;;;0.90;0.90;;;22.40;46.60;;;;;;4935139;28;44889;-63
2023/05/06 05:33:47;;;;;;;1.20;1.10;;;22.40;46.50;;;;;;4943993;28;45466;-62
2023/05/06 05:36:14;;;;;;;1.10;1.00;;;22.50;46.40;;;;;;4940396;28;46183;-62
2023/05/06 05:38:40;;;;;;;1.27;1.10;;;22.60;46.40;;;;;;4914017;28;46352;-64
2023/05/06 05:41:05;;;;;;;1.35;1.23;;;22.60;46.30;;;;;;4925582;28;46086;-62
2023/05/06 05:43:31;;;;;;;1.10;1.00;;;22.50;46.40;;;;;;4949152;28;45164;-63
2023/05/06 05:45:57;;;;;;;2.08;1.30;;;22.40;46.40;;;;;;4940248;28;44829;-61
2023/05/06 05:48:22;;;;;;;1.43;1.10;;;22.50;46.50;;;;;;4949074;28;45549;-62
2023/05/06 05:50:48;;;;;;;0.93;0.93;;;22.40;46.90;;;;;;4945549;28;45809;-62
2023/05/06 05:53:13;;;;;;;1.07;0.97;;;22.40;46.40;;;;;;4947190;28;45664;-63
2023/05/06 05:55:39;;;;;;;1.23;1.13;;;22.50;46.40;;;;;;4942978;28;45257;-62
2023/05/06 05:58:05;;;;;;;1.17;1.03;;;22.50;46.40;;;;;;4947255;28;45572;-62
2023/05/06 06:00:30;;;;;;;1.23;1.00;;;22.50;46.40;;;;;;4939344;28;46957;-63
2023/05/06 06:02:56;;;;;;;0.90;0.90;;;22.40;46.40;;;;;;4943553;28;45566;-61
2023/05/06 06:05:21;;;;;;;1.27;1.00;;;22.50;46.50;;;;;;4944992;28;45590;-62
2023/05/06 06:07:47;;;;;;;0.90;0.90;;;22.50;46.50;;;;;;4931030;28;46160;-62
2023/05/06 06:10:14;;;;;;;1.10;1.03;;;22.40;46.40;;;;;;4941076;28;45293;-66
2023/05/06 06:12:39;;;;;;;1.03;1.00;;;22.50;46.50;;;;;;4949744;28;45040;-63
2023/05/06 06:15:06;;;;;;;1.13;1.00;;;22.50;46.50;;;;;;4944445;28;44993;-63
2023/05/06 06:17:31;;;;;;;1.10;1.00;;;22.50;46.50;;;;;;4942848;28;46262;-62
2023/05/06 06:19:57;;;;;;;1.10;1.00;;;22.60;46.50;;;;;;4952632;28;45316;-62
2023/05/06 06:22:23;;;;;;;0.90;0.90;;;22.50;46.40;;;;;;4926048;28;45366;-61
2023/05/06 06:24:49;;;;;;;0.93;0.93;;;22.50;46.50;;;;;;4944366;28;45710;-62
2023/05/06 06:27:14;;;;;;;1.15;1.05;;;22.60;46.40;;;;;;4921985;28;46276;-62
2023/05/06 06:29:40;;;;;;;1.00;0.90;;;22.50;46.40;;;;;;4943692;28;45294;-62
2023/05/06 06:32:05;;;;;;;1.02;1.00;;;22.50;46.40;;;;;;4939851;28;45616;-65
2023/05/06 06:34:31;;;;;;;1.00;1.00;;;22.60;46.40;;;;;;4946997;28;45268;-62
2023/05/06 06:36:56;;;;;;;1.27;1.00;;;22.60;46.40;;;;;;4927035;28;46198;-65
2023/05/06 06:39:22;;;;;;;1.17;1.00;;;22.50;46.30;;;;;;4944229;28;45279;-61
2023/05/06 06:41:47;;;;;;;1.10;1.00;;;22.50;46.30;;;;;;4936682;28;45901;-65
2023/05/06 06:44:13;;;;;;;0.90;0.90;;;22.50;46.30;;;;;;4949722;28;45292;-62
2023/05/06 06:46:38;;;;;;;1.27;1.17;;;22.60;46.40;;;;;;4941271;28;46176;-62
2023/05/06 06:49:04;;;;;;;1.30;1.00;;;22.50;46.30;;;;;;4946375;28;45176;-62
2023/05/06 06:51:30;;;;;;;1.00;0.90;;;22.60;46.40;;;;;;4944049;28;45438;-62
2023/05/06 06:53:56;;;;;;;1.00;1.00;;;22.50;46.40;;;;;;4949889;28;45268;-62
2023/05/06 06:56:21;;;;;;;1.00;0.90;;;22.60;46.40;;;;;;4943938;28;47211;-62
2023/05/06 06:58:47;;;;;;;1.00;0.90;;;22.60;46.40;;;;;;4947215;28;45527;-61
2023/05/06 07:01:13;;;;;;;1.10;1.00;;;22.60;46.40;;;;;;4940663;28;45553;-62
2023/05/06 07:03:38;;;;;;;1.07;0.97;;;22.60;46.40;;;;;;4929891;28;45380;-62
2023/05/06 07:06:04;;;;;;;1.03;0.97;;;22.60;46.30;;;;;;4946249;28;46224;-62
2023/05/06 07:08:30;;;;;;;1.10;1.00;;;22.60;46.30;;;;;;4946254;28;45080;-63
2023/05/06 07:10:56;;;;;;;1.07;1.00;;;22.60;46.40;;;;;;4946033;28;44766;-62
2023/05/06 07:13:22;;;;;;;1.07;0.97;;;22.60;46.30;;;;;;4948780;28;45201;-62
2023/05/06 07:15:48;;;;;;;1.17;1.03;;;22.60;46.40;;;;;;4919814;28;45796;-61
2023/05/06 07:18:14;;;;;;;1.40;0.98;;;22.60;46.40;;;;;;4943133;28;45722;-62
2023/05/06 07:20:39;;;;;;;1.10;1.00;;;22.60;46.40;;;;;;4940325;28;45512;-63
2023/05/06 07:23:05;;;;;;;1.63;1.23;;;22.60;46.40;;;;;;4945948;28;45205;-63
2023/05/06 07:25:31;;;;;;;0.90;0.90;;;22.60;46.30;;;;;;4926221;28;45276;-62
2023/05/06 07:27:56;;;;;;;1.40;1.00;;;22.60;46.30;;;;;;4946903;28;45152;-60
2023/05/06 07:30:22;;;;;;;0.90;0.90;;;22.60;46.30;;;;;;4941063;28;45533;-65
2023/05/06 07:32:48;;;;;;;0.87;0.83;;;22.60;46.30;;;;;;4923181;28;46053;-63
2023/05/06 07:35:13;;;;;;;1.10;1.00;;;22.60;46.30;;;;;;4920074;28;47038;-63
2023/05/06 07:37:39;;;;;;;0.83;0.80;;;22.60;46.30;;;;;;4941922;28;44725;-63
2023/05/06 07:40:05;;;;;;;1.10;1.00;;;22.60;46.40;;;;;;4927972;28;46017;-66
2023/05/06 07:42:31;;;;;;;0.80;0.80;;;22.60;46.40;;;;;;4942685;28;45627;-62
2023/05/06 07:44:56;;;;;;;1.10;1.00;;;22.70;46.40;;;;;;4933977;28;46420;-62
2023/05/06 07:47:30;;;;;;;1.20;0.97;;;22.60;46.40;;;;;;4935821;28;45189;-63
2023/05/06 07:49:55;;;;;;;1.80;0.93;;;22.60;46.40;;;;;;4920888;28;44822;-62
2023/05/06 07:52:22;;;;;;;0.97;0.90;;;22.70;46.50;;;;;;4924552;28;45208;-62
2023/05/06 07:54:47;;;;;;;0.80;0.80;;;22.70;46.40;;;;;;4950633;28;45319;-63
2023/05/06 07:57:13;;;;;;;1.10;0.90;;;22.60;46.30;;;;;;4945367;28;45285;-62
2023/05/06 07:59:39;;;;;;;0.90;0.90;;;22.60;46.30;;;;;;4930067;28;45809;-62
2023/05/06 08:02:05;;;;;;;1.10;1.00;;;22.70;46.30;;;;;;4939851;28;45421;-62
2023/05/06 08:04:30;;;;;;;1.00;0.90;;;22.70;46.30;;;;;;4947448;28;45841;-63
2023/05/06 08:06:56;;;;;;;1.13;1.00;;;22.60;46.20;;;;;;4939954;28;45185;-63
2023/05/06 08:09:21;;;;;;;1.07;0.97;;;22.70;46.30;;;;;;4946763;28;45564;-65
2023/05/06 08:11:48;;;;;;;1.23;1.13;;;22.70;46.30;;;;;;4940707;28;45126;-64
2023/05/06 08:14:14;;;;;;;1.08;0.98;;;22.80;46.30;;;;;;4941971;28;45209;-62
2023/05/06 08:16:40;;;;;;;1.10;0.90;;;22.80;46.30;;;;;;4943819;28;45237;-63
2023/05/06 08:19:05;;;;;;;1.05;1.00;;;22.80;46.30;;;;;;4931700;28;45269;-62
2023/05/06 08:21:31;;;;;;;1.13;1.02;;;22.80;46.30;;;;;;4922714;28;44795;-61
2023/05/06 08:23:56;;;;;;;2.03;1.33;;;22.80;46.30;;;;;;4946813;28;45272;-64
2023/05/06 08:26:22;;;;;;;0.98;0.98;;;22.80;46.30;;;;;;4942265;28;45257;-63
2023/05/06 08:28:47;;;;;;;0.80;0.80;;;22.80;46.20;;;;;;4946197;28;45361;-62
2023/05/06 08:31:13;;;;;;;1.10;0.90;;;22.80;46.20;;;;;;4935884;28;45258;-62
2023/05/06 08:33:38;;;;;;;0.80;0.80;;;22.80;46.20;;;;;;4944198;28;46010;-62
2023/05/06 08:36:04;;;;;;;1.10;1.00;;;22.80;46.20;;;;;;4942605;28;45222;-62
2023/05/06 08:38:29;;;;;;;0.90;0.90;;;22.80;46.20;;;;;;4927275;28;44944;-63
2023/05/06 08:40:55;;;;;;;1.20;1.10;;;22.80;46.10;;;;;;4942575;28;45313;-62
2023/05/06 08:43:21;;;;;;;0.93;0.93;;;22.90;46.20;;;;;;4911917;28;47151;-66
2023/05/06 08:45:47;;;;;;;1.10;1.00;;;22.90;46.20;;;;;;4930279;28;45302;-65
2023/05/06 08:48:12;;;;;;;1.20;1.10;;;22.90;46.20;;;;;;4917913;28;45402;-62
2023/05/06 08:50:41;;;;;;;1.17;1.02;;;22.90;46.20;;;;;;4916308;28;46295;-63
2023/05/06 08:53:08;;;;;;;0.95;0.82;;;22.90;46.20;;;;;;4944211;28;46176;-62
2023/05/06 08:55:33;;;;;;;0.90;0.80;;;22.90;46.10;;;;;;4927125;28;45665;-62
2023/05/06 08:57:59;;;;;;;1.40;1.13;;;22.90;46.10;;;;;;4928013;28;44946;-62
2023/05/06 09:00:24;;;;;;;0.85;0.85;;;22.90;46.10;;;;;;4922265;28;45841;-60
2023/05/06 09:02:50;;;;;;;0.80;0.80;;;23.00;46.10;;;;;;4927826;28;46036;-62
2023/05/06 09:05:15;;;;;;;0.98;0.90;;;23.00;46.10;;;;;;4926334;28;45410;-65
2023/05/06 09:07:41;;;;;;;0.98;0.93;;;23.00;46.10;;;;;;4942122;28;44768;-62
2023/05/06 09:10:11;;;;;;;1.17;1.05;;;23.00;46.10;;;;;;4940850;28;45407;-63
2023/05/06 09:12:37;;;;;;;0.80;0.80;;;23.00;46.10;;;;;;4899697;28;47114;-62
2023/05/06 09:15:03;;;;;;;1.00;0.90;;;23.00;46.00;;;;;;4929837;28;45212;-65
2023/05/06 09:17:30;;;;;;;0.95;0.88;;;23.00;46.10;;;;;;4921677;28;45026;-62
2023/05/06 09:19:56;;;;;;;1.20;1.00;;;23.00;46.00;;;;;;4951135;28;45180;-61
2023/05/06 09:22:30;;;;;;;0.87;0.80;;;23.00;46.00;;;;;;4942310;28;46298;-63
2023/05/06 09:24:56;;;;;;;1.15;0.90;;;23.00;46.00;;;;;;4946139;28;45455;-61
2023/05/06 09:27:24;;;;;;;0.80;0.80;;;23.00;46.00;;;;;;4949129;28;45170;-62
2023/05/06 09:30:08;;;;;;;1.40;1.00;;;23.00;46.00;;;;;;4931427;28;45221;-62
2023/05/06 09:32:34;;;;;;;1.02;0.90;;;23.00;46.00;;;;;;4923474;28;46620;-62
2023/05/06 09:35:00;;;;;;;1.55;1.00;;;23.10;46.00;;;;;;4925880;28;45578;-62
2023/05/06 09:37:26;;;;;;;0.80;0.80;;;23.10;46.00;;;;;;4942447;28;44853;-63
2023/05/06 09:39:56;;;;;;;0.80;0.80;;;23.10;46.00;;;;;;4926351;28;45694;-66
2023/05/06 09:42:22;;;;;;;0.95;0.93;;;23.10;46.00;;;;;;4930300;28;46143;-62
2023/05/06 09:44:50;;;;;;;0.77;0.77;;;23.10;46.00;;;;;;4945695;28;46292;-62
2023/05/06 09:47:15;;;;;;;1.10;1.00;;;23.20;46.00;;;;;;4909366;28;45289;-63
2023/05/06 09:49:41;;;;;;;0.85;0.85;;;23.20;46.00;;;;;;4910382;28;45372;-64
2023/05/06 09:52:06;;;;;;;0.90;0.90;;;23.20;46.00;;;;;;4906456;28;46281;-63
2023/05/06 09:54:32;;;;;;;1.13;0.90;;;23.20;45.90;;;;;;4943170;28;45260;-64
2023/05/06 09:56:57;;;;;;;0.87;0.83;;;23.20;46.00;;;;;;4939285;28;45264;-62
2023/05/06 09:59:23;;;;;;;1.10;1.00;;;23.20;45.90;;;;;;4918377;28;45047;-62
2023/05/06 10:01:49;;;;;;;1.10;0.90;;;23.20;45.90;;;;;;4903569;28;45856;-63
2023/05/06 10:04:14;;;;;;;0.80;0.70;;;23.20;45.90;;;;;;4913244;28;45333;-62
2023/05/06 10:06:40;;;;;;;1.40;0.90;;;23.30;45.90;;;;;;4911769;28;46718;-62
2023/05/06 10:09:09;;;;;;;0.80;0.80;;;23.20;45.90;;;;;;4928900;28;45212;-65
2023/05/06 10:11:34;;;;;;;0.90;0.90;;;23.20;45.80;;;;;;4900031;28;46186;-62
2023/05/06 10:14:00;;;;;;;1.10;1.00;;;23.30;45.80;;;;;;4907885;28;45688;-62
2023/05/06 10:16:26;;;;;;;0.85;0.82;;;23.30;45.80;;;;;;4898181;28;45181;-65
2023/05/06 10:18:53;;;;;;;1.03;0.93;;;23.30;45.80;;;;;;4923224;28;45633;-61
2023/05/06 10:21:20;;;;;;;0.70;0.70;;;23.30;45.80;;;;;;4887207;28;46240;-65
2023/05/06 10:24:07;;;;;;;0.90;0.90;;;23.30;45.80;;;;;;4904631;28;44821;-62
2023/05/06 10:26:36;;;;;;;1.15;0.80;;;23.30;45.80;;;;;;4900362;28;46865;-62
2023/05/06 10:29:03;;;;;;;1.05;0.75;;;23.30;45.70;;;;;;4924516;28;45227;-62
2023/05/06 10:31:29;;;;;;;1.40;1.00;;;23.30;45.70;;;;;;4898505;28;45344;-62
2023/05/06 10:33:55;;;;;;;1.00;0.90;;;23.40;45.80;;;;;;4893968;28;45550;-63
2023/05/06 10:36:22;;;;;;;1.00;0.90;;;23.40;45.70;;;;;;4902854;28;45451;-65
2023/05/06 10:38:53;;;;;;;0.80;0.80;;;23.40;45.60;;;;;;4924300;28;44775;-63
2023/05/06 10:41:21;;;;;;;0.90;0.80;;;23.40;45.50;;;;;;4907347;28;45983;-62
2023/05/06 10:43:48;;;;;;;1.17;1.00;;;23.40;45.60;;;;;;4924943;28;45280;-62
2023/05/06 10:46:14;;;;;;;0.95;0.80;;;23.40;45.50;;;;;;4914667;28;46115;-62
2023/05/06 10:49:03;;;;;;;1.38;1.00;;;23.40;45.50;;;;;;4906715;28;45641;-66
2023/05/06 10:51:32;;;;;;;1.10;0.90;;;23.50;45.50;;;;;;4919316;28;45651;-66
2023/05/06 10:54:03;;;;;;;0.80;0.80;;;23.40;45.50;;;;;;4908286;28;45961;-64
2023/05/06 10:56:47;;;;;;;0.80;0.80;;;23.40;45.50;;;;;;4920415;28;45447;-66
2023/05/06 10:59:13;;;;;;;1.33;1.02;;;23.50;45.40;;;;;;4923855;28;45312;-62
2023/05/06 11:01:40;;;;;;;1.23;0.97;;;23.50;45.40;;;;;;4927726;28;45355;-62
2023/05/06 11:04:12;;;;;;;0.98;0.90;;;23.50;45.40;;;;;;4949348;28;45487;-61
2023/05/06 11:06:43;;;;;;;0.88;0.88;;;23.50;45.40;;;;;;4941680;28;45165;-62
2023/05/06 11:09:21;;;;;;;0.90;0.90;;;23.50;45.40;;;;;;4949233;28;45063;-63
2023/05/06 11:12:01;;;;;;;1.10;0.98;;;23.50;45.40;;;;;;4927315;28;45902;-61
2023/05/06 11:14:30;;;;;;;1.08;0.98;;;23.50;45.40;;;;;;4933001;28;45333;-62
2023/05/06 11:17:00;;;;;;;0.80;0.80;;;23.50;45.40;;;;;;4935749;28;45632;-62
2023/05/06 11:19:30;;;;;;;0.80;0.80;;;23.50;45.30;;;;;;4944907;28;45888;-62
2023/05/06 11:21:57;;;;;;;1.35;0.93;;;23.50;45.40;;;;;;4940812;28;45762;-62
2023/05/06 11:24:39;;;;;;;0.95;0.90;;;23.50;45.30;;;;;;4945456;28;45411;-65
2023/05/06 11:27:05;;;;;;;1.00;0.90;;;23.50;45.40;;;;;;4942592;28;45224;-62
2023/05/06 11:29:31;;;;;;;0.87;0.87;;;23.60;45.40;;;;;;4942343;28;44940;-61
2023/05/06 11:31:56;;;;;;;0.70;0.70;;;23.50;45.30;;;;;;4906967;28;45509;-62
2023/05/06 11:34:27;;;;;;;1.70;1.00;;;23.60;45.40;;;;;;4928498;28;45394;-62
2023/05/06 11:37:01;;;;;;;0.90;0.90;;;23.60;45.40;;;;;;4939472;28;46071;-62
2023/05/06 11:39:29;;;;;;;0.88;0.88;;;23.60;45.40;;;;;;4945069;28;47219;-63
2023/05/06 11:41:58;;;;;;;1.23;1.07;;;23.60;45.40;;;;;;4921297;28;47255;-62
2023/05/06 11:44:37;;;;;;;0.80;0.80;;;23.60;45.30;;;;;;4946052;28;46438;-63
2023/05/06 11:47:04;;;;;;;0.80;0.80;;;23.60;45.30;;;;;;4936560;28;45230;-64
2023/05/06 11:49:40;;;;;;;1.00;0.85;;;23.60;45.30;;;;;;4949838;28;45291;-63
2023/05/06 11:52:10;;;;;;;0.80;0.80;;;23.60;45.40;;;;;;4941371;28;45912;-62
2023/05/06 11:54:37;;;;;;;1.40;1.20;;;23.70;45.40;;;;;;4930989;28;46183;-66
2023/05/06 11:57:03;;;;;;;0.98;0.82;;;23.70;45.40;;;;;;4928020;28;45182;-62
2023/05/06 11:59:33;;;;;;;1.20;1.10;;;23.70;45.40;;;;;;4950551;28;45847;-62
2023/05/06 12:02:00;;;;;;;0.80;0.80;;;23.70;45.40;;;;;;4940659;28;46133;-62
2023/05/06 12:04:26;;;;;;;1.58;0.90;;;23.70;45.40;;;;;;4946549;28;45189;-61
2023/05/06 12:06:54;;;;;;;1.10;1.00;;;23.70;45.30;;;;;;4940033;28;45849;-62
2023/05/06 12:09:21;;;;;;;0.80;0.80;;;23.70;45.40;;;;;;4945094;28;45155;-63
2023/05/06 12:11:46;;;;;;;0.82;0.82;;;23.70;45.30;;;;;;4926589;28;46250;-63
2023/05/06 12:14:12;;;;;;;0.80;0.80;;;23.70;45.50;;;;;;4949059;28;45223;-62
2023/05/06 12:16:37;;;;;;;1.60;0.80;;;23.70;45.40;;;;;;4917437;28;45407;-65
2023/05/06 12:19:04;;;;;;;0.80;0.80;;;23.70;45.30;;;;;;4944376;28;45209;-63
2023/05/06 12:21:30;;;;;;;1.13;0.82;;;23.70;45.20;;;;;;4926406;28;45336;-62
2023/05/06 12:23:58;;;;;;;0.85;0.85;;;23.70;45.30;;;;;;4931149;28;45409;-63
2023/05/06 12:26:26;;;;;;;0.85;0.85;;;23.80;45.40;;;;;;4945172;28;45893;-63
2023/05/06 12:29:08;;;;;;;0.90;0.90;;;23.70;45.20;;;;;;4946400;28;45457;-60
2023/05/06 12:31:33;;;;;;;0.80;0.80;;;23.70;45.40;;;;;;4939522;28;45579;-63
2023/05/06 12:33:59;;;;;;;0.90;0.90;;;23.80;45.20;;;;;;4942163;28;45219;-61
2023/05/06 12:36:25;;;;;;;0.70;0.70;;;23.70;45.30;;;;;;4941800;28;45630;-63
2023/05/06 12:38:51;;;;;;;1.08;0.98;;;23.80;45.30;;;;;;4944726;28;45148;-65
2023/05/06 12:41:18;;;;;;;1.20;0.90;;;23.80;45.20;;;;;;4946131;28;45558;-62
2023/05/06 12:43:44;;;;;;;0.60;0.60;;;23.80;45.20;;;;;;4929037;28;44835;-62
2023/05/06 12:46:11;;;;;;;0.70;0.70;;;23.90;45.40;;;;;;4940970;28;45291;-63
2023/05/06 12:48:37;;;;;;;1.00;0.90;;;23.80;45.30;;;;;;4926267;28;45337;-64
2023/05/06 12:51:19;;;;;;;0.88;0.80;;;23.90;45.60;;;;;;4933755;28;45386;-63
2023/05/06 12:53:45;;;;;;;0.85;0.70;;;23.80;45.20;;;;;;4928983;28;44779;-63
2023/05/06 12:56:10;;;;;;;0.97;0.87;;;23.80;45.30;;;;;;4945544;28;45884;-62
2023/05/06 12:58:36;;;;;;;0.80;0.80;;;23.90;45.50;;;;;;4944425;28;45592;-65
2023/05/06 13:01:02;;;;;;;0.88;0.80;;;23.90;45.60;;;;;;4931465;28;46224;-64
2023/05/06 13:03:28;;;;;;;1.17;0.90;;;23.90;45.50;;;;;;4938421;28;45254;-63
2023/05/06 13:05:54;;;;;;;0.80;0.80;;;23.90;45.50;;;;;;4917750;28;45885;-62
2023/05/06 13:08:19;;;;;;;0.80;0.80;;;24.00;45.50;;;;;;4942249;28;45157;-65
2023/05/06 13:10:45;;;;;;;1.30;0.80;;;23.90;45.50;;;;;;4907991;28;45801;-63
2023/05/06 13:13:11;;;;;;;0.80;0.80;;;23.90;45.60;;;;;;4944687;28;45597;-62
2023/05/06 13:15:36;;;;;;;1.23;0.93;;;23.90;45.50;;;;;;4920164;28;45445;-64
2023/05/06 13:18:02;;;;;;;0.80;0.80;;;23.90;45.50;;;;;;4931308;28;44912;-62
2023/05/06 13:20:27;;;;;;;0.87;0.87;;;23.90;45.20;;;;;;4922806;28;46124;-63
2023/05/06 13:22:53;;;;;;;0.93;0.90;;;23.90;45.20;;;;;;4943636;28;45588;-64
2023/05/06 13:25:18;;;;;;;0.70;0.70;;;23.90;45.20;;;;;;4939094;28;45846;-66
2023/05/06 13:27:44;;;;;;;0.90;0.83;;;23.90;45.20;;;;;;4923840;28;45337;-64
2023/05/06 13:30:10;;;;;;;0.87;0.83;;;23.90;45.30;;;;;;4946171;28;46487;-67
2023/05/06 13:32:35;;;;;;;0.70;0.70;;;23.90;45.50;;;;;;4937103;28;45525;-66
2023/05/06 13:35:01;;;;;;;1.00;0.90;;;23.90;45.20;;;;;;4941663;28;45405;-62
2023/05/06 13:37:26;;;;;;;1.10;0.80;;;23.90;45.50;;;;;;4939377;28;45455;-64
2023/05/06 13:39:52;;;;;;;0.90;0.80;;;23.90;45.50;;;;;;4942718;28;45662;-63
2023/05/06 13:42:17;;;;;;;0.67;0.67;;;24.00;45.60;;;;;;4938480;28;45413;-65
2023/05/06 13:44:43;;;;;;;0.88;0.85;;;23.90;45.50;;;;;;4941953;28;45283;-64
2023/05/06 13:47:08;;;;;;;0.70;0.70;;;24.00;45.60;;;;;;4930983;28;45674;-61
2023/05/06 13:49:34;;;;;;;0.95;0.85;;;24.00;45.60;;;;;;4942645;28;46089;-62
2023/05/06 13:52:00;;;;;;;1.10;0.93;;;24.00;45.70;;;;;;4939020;28;45177;-65
2023/05/06 13:54:25;;;;;;;0.82;0.80;;;23.90;45.60;;;;;;4948395;28;45220;-63
2023/05/06 13:56:51;;;;;;;0.80;0.80;;;24.00;45.70;;;;;;4942274;28;45184;-63
2023/05/06 13:59:16;;;;;;;0.98;0.90;;;24.00;45.70;;;;;;4947520;28;47098;-62
2023/05/06 14:01:42;;;;;;;0.83;0.83;;;24.00;45.70;;;;;;4937404;28;45769;-62
2023/05/06 14:04:07;;;;;;;1.27;1.00;;;24.00;45.70;;;;;;4944258;28;45693;-62
2023/05/06 14:06:33;;;;;;;0.80;0.80;;;24.00;45.70;;;;;;4940691;28;44982;-65
2023/05/06 14:08:59;;;;;;;0.83;0.80;;;24.00;45.70;;;;;;4923323;28;46041;-62
2023/05/06 14:11:24;;;;;;;0.90;0.80;;;24.00;45.70;;;;;;4943356;28;45559;-61
2023/05/06 14:13:50;;;;;;;0.60;0.60;;;24.00;45.70;;;;;;4942132;28;44922;-65
2023/05/06 14:16:15;;;;;;;0.80;0.80;;;24.00;45.70;;;;;;4920514;28;45429;-63
2023/05/06 14:18:41;;;;;;;1.20;0.80;;;24.00;45.70;;;;;;4944230;28;45550;-59
2023/05/06 14:21:06;;;;;;;1.10;1.00;;;24.00;45.80;;;;;;4922170;28;44996;-61
2023/05/06 14:23:32;;;;;;;0.90;0.90;;;24.00;45.80;;;;;;4942921;28;45337;-63
2023/05/06 14:25:57;;;;;;;0.77;0.75;;;24.00;45.80;;;;;;4920668;28;45185;-62
2023/05/06 14:28:23;;;;;;;1.80;0.80;;;24.00;45.80;;;;;;4949031;28;45880;-63
2023/05/06 14:30:49;;;;;;;0.73;0.73;;;24.00;45.80;;;;;;4938126;28;45161;-63
2023/05/06 14:33:15;;;;;;;0.90;0.80;;;24.00;45.80;;;;;;4945590;28;45108;-60
2023/05/06 14:35:41;;;;;;;1.07;0.97;;;24.00;45.90;;;;;;4943433;28;45476;-62
2023/05/06 14:38:07;;;;;;;1.15;1.05;;;24.00;45.80;;;;;;4935452;28;46389;-62
2023/05/06 14:40:34;;;;;;;1.20;0.90;;;24.00;45.90;;;;;;4937866;28;45408;-62
2023/05/06 14:43:00;;;;;;;0.90;0.90;;;24.00;45.90;;;;;;4941284;28;45255;-64
2023/05/06 14:45:26;;;;;;;0.90;0.80;;;24.00;45.80;;;;;;4939934;28;45459;-66
2023/05/06 14:47:51;;;;;;;0.93;0.90;;;24.00;46.00;;;;;;4928093;28;45386;-63
2023/05/06 14:50:17;;;;;;;0.80;0.80;;;24.00;45.90;;;;;;4940476;28;45442;-67
2023/05/06 14:52:43;;;;;;;0.88;0.88;;;24.00;45.90;;;;;;4943462;28;45525;-64
2023/05/06 14:55:09;;;;;;;1.10;0.80;;;24.00;45.90;;;;;;4941893;28;45177;-62
2023/05/06 14:57:35;;;;;;;0.98;0.90;;;24.00;46.00;;;;;;4945771;28;45891;-63
2023/05/06 15:00:08;;;;;;;0.77;0.77;;;24.00;46.00;;;;;;4947670;28;45062;-65
2023/05/06 15:02:35;;;;;;;0.80;0.80;;;24.00;45.90;;;;;;4921692;28;46399;-66
2023/05/06 15:05:01;;;;;;;0.83;0.80;;;24.00;46.00;;;;;;4945344;28;45053;-64
2023/05/06 15:07:26;;;;;;;1.13;0.90;;;24.00;46.10;;;;;;4945781;28;45240;-62
2023/05/06 15:09:52;;;;;;;1.40;1.00;;;24.10;46.10;;;;;;4926715;28;45339;-64
2023/05/06 15:12:19;;;;;;;1.20;1.10;;;24.00;45.90;;;;;;4939436;28;45051;-65
2023/05/06 15:14:45;;;;;;;0.90;0.90;;;24.00;46.00;;;;;;4944645;28;45486;-67
2023/05/06 15:17:12;;;;;;;0.82;0.82;;;24.00;46.00;;;;;;4921131;28;45520;-64
2023/05/06 15:19:37;;;;;;;0.85;0.70;;;24.00;46.00;;;;;;4921997;28;45906;-66
2023/05/06 15:22:03;;;;;;;0.90;0.90;;;24.00;46.00;;;;;;4936449;28;45919;-65
2023/05/06 15:24:28;;;;;;;0.90;0.90;;;24.00;46.00;;;;;;4926646;28;45610;-64
2023/05/06 15:26:54;;;;;;;0.80;0.80;;;24.10;46.10;;;;;;4938368;28;46814;-64
2023/05/06 15:29:20;;;;;;;0.90;0.90;;;24.00;46.00;;;;;;4942260;28;45646;-66
2023/05/06 15:31:45;;;;;;;0.75;0.75;;;24.00;46.10;;;;;;4909990;28;45639;-64
2023/05/06 15:34:11;;;;;;;1.00;0.90;;;24.00;46.10;;;;;;4924416;28;45520;-64
2023/05/06 15:36:40;;;;;;;0.80;0.80;;;24.00;46.10;;;;;;4940732;28;45392;-63
2023/05/06 15:39:06;;;;;;;0.70;0.70;;;24.00;46.10;;;;;;4914863;28;44832;-63
2023/05/06 15:41:32;;;;;;;0.80;0.80;;;24.00;46.10;;;;;;4941888;28;44997;-64
2023/05/06 15:43:58;;;;;;;1.23;0.95;;;24.00;46.10;;;;;;4940775;28;45282;-64
2023/05/06 15:46:24;;;;;;;1.10;1.00;;;24.00;46.10;;;;;;4940320;28;46113;-63